sensor_id;sensor_type;location;lat;lon;timestamp;temperature;humidity
52323;DHT22;38263;52.920;6.238;2024-03-02T00:00:19;8.90;99.90
52323;DHT22;38263;52.920;6.238;2024-03-02T00:07:56;8.90;99.90
52323;DHT22;38263;52.920;6.238;2024-03-02T00:10:28;9.10;99.90
52323;DHT22;38263;52.920;6.238;2024-03-02T00:15:39;9.00;99.90
52323;DHT22;38263;52.920;6.238;2024-03-02T00:25:39;9.10;99.90
52323;DHT22;38263;52.920;6.238;2024-03-02T00:28:20;8.90;99.90
52323;DHT22;38263;52.920;6.238;2024-03-02T00:38:05;9.10;99.90
52323;DHT22;38263;52.920;6.238;2024-03-02T00:40:32;9.00;99.90
52323;DHT22;38263;52.920;6.238;2024-03-02T00:45:25;9.00;99.90
52323;DHT22;38263;52.920;6.238;2024-03-02T00:47:51;9.20;99.90
52323;DHT22;38263;52.920;6.238;2024-03-02T01:17:05;9.00;99.90
52323;DHT22;38263;52.920;6.238;2024-03-02T01:34:08;9.00;99.90
52323;DHT22;38263;52.920;6.238;2024-03-02T02:23:03;9.00;99.90
52323;DHT22;38263;52.920;6.238;2024-03-02T02:27:56;9.00;99.90
52323;DHT22;38263;52.920;6.238;2024-03-02T02:30:29;8.80;99.90
52323;DHT22;38263;52.920;6.238;2024-03-02T02:37:48;8.80;99.90
52323;DHT22;38263;52.920;6.238;2024-03-02T02:40:15;8.90;99.90
52323;DHT22;38263;52.920;6.238;2024-03-02T02:50:03;8.80;99.90
52323;DHT22;38263;52.920;6.238;2024-03-02T02:52:33;9.00;99.90
52323;DHT22;38263;52.920;6.238;2024-03-02T03:09:37;9.00;99.90
52323;DHT22;38263;52.920;6.238;2024-03-02T04:15:22;8.50;99.90
52323;DHT22;38263;52.920;6.238;2024-03-02T04:32:26;8.30;99.90
52323;DHT22;38263;52.920;6.238;2024-03-02T04:47:04;8.20;99.90
52323;DHT22;38263;52.920;6.238;2024-03-02T04:54:25;7.90;99.90
52323;DHT22;38263;52.920;6.238;2024-03-02T05:06:39;8.10;99.90
52323;DHT22;38263;52.920;6.238;2024-03-02T05:31:19;8.00;99.90
52323;DHT22;38263;52.920;6.238;2024-03-02T06:15:35;7.60;99.90
52323;DHT22;38263;52.920;6.238;2024-03-02T06:40:01;7.40;99.90
52323;DHT22;38263;52.920;6.238;2024-03-02T07:26:30;7.80;99.90
52323;DHT22;38263;52.920;6.238;2024-03-02T07:31:22;7.70;99.90
52323;DHT22;38263;52.920;6.238;2024-03-02T07:38:40;8.10;99.90
52323;DHT22;38263;52.920;6.238;2024-03-02T07:41:07;8.00;99.90
52323;DHT22;38263;52.920;6.238;2024-03-02T07:43:33;8.10;99.90
52323;DHT22;38263;52.920;6.238;2024-03-02T08:00:39;9.90;99.90
52323;DHT22;38263;52.920;6.238;2024-03-02T08:03:04;10.70;99.90
52323;DHT22;38263;52.920;6.238;2024-03-02T08:12:48;11.60;99.90
52323;DHT22;38263;52.920;6.238;2024-03-02T08:17:40;11.60;99.90
52323;DHT22;38263;52.920;6.238;2024-03-02T08:20:11;11.90;99.90
52323;DHT22;38263;52.920;6.238;2024-03-02T08:25:03;12.20;99.90
52323;DHT22;38263;52.920;6.238;2024-03-02T08:27:29;12.20;99.90
52323;DHT22;38263;52.920;6.238;2024-03-02T08:37:13;13.20;99.90
52323;DHT22;38263;52.920;6.238;2024-03-02T08:42:05;15.00;99.90
52323;DHT22;38263;52.920;6.238;2024-03-02T08:44:31;15.90;99.90
52323;DHT22;38263;52.920;6.238;2024-03-02T08:46:56;16.00;99.90
52323;DHT22;38263;52.920;6.238;2024-03-02T08:49:22;16.70;99.90
52323;DHT22;38263;52.920;6.238;2024-03-02T08:51:47;17.30;99.90
52323;DHT22;38263;52.920;6.238;2024-03-02T08:54:23;15.90;99.90
52323;DHT22;38263;52.920;6.238;2024-03-02T08:56:52;14.30;99.90
52323;DHT22;38263;52.920;6.238;2024-03-02T08:59:17;13.80;99.90
52323;DHT22;38263;52.920;6.238;2024-03-02T09:01:43;13.30;99.90
52323;DHT22;38263;52.920;6.238;2024-03-02T09:04:09;12.60;99.90
52323;DHT22;38263;52.920;6.238;2024-03-02T09:06:34;12.00;99.90
52323;DHT22;38263;52.920;6.238;2024-03-02T09:16:20;11.20;99.90
52323;DHT22;38263;52.920;6.238;2024-03-02T09:28:31;12.10;99.90
52323;DHT22;38263;52.920;6.238;2024-03-02T09:30:57;13.30;99.90
52323;DHT22;38263;52.920;6.238;2024-03-02T09:33:22;13.80;99.90
52323;DHT22;38263;52.920;6.238;2024-03-02T09:35:48;14.10;99.90
52323;DHT22;38263;52.920;6.238;2024-03-02T09:38:14;14.60;99.90
52323;DHT22;38263;52.920;6.238;2024-03-02T09:40:42;14.90;99.90
52323;DHT22;38263;52.920;6.238;2024-03-02T09:43:08;16.30;99.90
52323;DHT22;38263;52.920;6.238;2024-03-02T09:45:34;16.60;99.90
52323;DHT22;38263;52.920;6.238;2024-03-02T09:47:59;17.40;99.90
52323;DHT22;38263;52.920;6.238;2024-03-02T09:50:25;17.40;99.90
52323;DHT22;38263;52.920;6.238;2024-03-02T09:52:52;17.40;99.90
52323;DHT22;38263;52.920;6.238;2024-03-02T09:55:18;17.20;99.90
52323;DHT22;38263;52.920;6.238;2024-03-02T09:57:45;17.70;99.90
52323;DHT22;38263;52.920;6.238;2024-03-02T10:00:11;17.20;99.90
52323;DHT22;38263;52.920;6.238;2024-03-02T10:02:41;17.20;99.90
52323;DHT22;38263;52.920;6.238;2024-03-02T10:05:08;18.50;99.90
52323;DHT22;38263;52.920;6.238;2024-03-02T10:07:34;18.00;99.90
52323;DHT22;38263;52.920;6.238;2024-03-02T10:10:15;18.10;99.90
52323;DHT22;38263;52.920;6.238;2024-03-02T10:12:41;19.00;99.90
52323;DHT22;38263;52.920;6.238;2024-03-02T10:15:07;19.50;99.90
52323;DHT22;38263;52.920;6.238;2024-03-02T10:17:33;20.30;99.90
52323;DHT22;38263;52.920;6.238;2024-03-02T10:19:58;21.20;99.90
52323;DHT22;38263;52.920;6.238;2024-03-02T10:22:24;21.70;99.90
52323;DHT22;38263;52.920;6.238;2024-03-02T10:24:49;21.50;99.90
52323;DHT22;38263;52.920;6.238;2024-03-02T10:27:17;21.20;99.90
52323;DHT22;38263;52.920;6.238;2024-03-02T10:29:46;21.00;99.90
52323;DHT22;38263;52.920;6.238;2024-03-02T10:32:12;20.40;99.90
52323;DHT22;38263;52.920;6.238;2024-03-02T10:34:41;19.50;99.90
52323;DHT22;38263;52.920;6.238;2024-03-02T10:37:08;19.10;99.90
52323;DHT22;38263;52.920;6.238;2024-03-02T10:39:37;19.20;99.90
52323;DHT22;38263;52.920;6.238;2024-03-02T10:42:06;18.50;99.90
52323;DHT22;38263;52.920;6.238;2024-03-02T10:44:32;17.70;99.90
52323;DHT22;38263;52.920;6.238;2024-03-02T10:47:03;17.00;99.90
52323;DHT22;38263;52.920;6.238;2024-03-02T10:49:30;17.00;99.90
52323;DHT22;38263;52.920;6.238;2024-03-02T10:51:57;17.60;99.90
52323;DHT22;38263;52.920;6.238;2024-03-02T10:54:23;16.00;99.90
52323;DHT22;38263;52.920;6.238;2024-03-02T10:56:53;16.10;99.90
52323;DHT22;38263;52.920;6.238;2024-03-02T11:01:55;15.70;99.90
52323;DHT22;38263;52.920;6.238;2024-03-02T11:04:21;16.80;99.90
52323;DHT22;38263;52.920;6.238;2024-03-02T11:06:50;15.90;99.90
52323;DHT22;38263;52.920;6.238;2024-03-02T11:09:19;16.10;99.90
52323;DHT22;38263;52.920;6.238;2024-03-02T11:11:56;16.70;99.90
52323;DHT22;38263;52.920;6.238;2024-03-02T11:14:24;16.00;99.90
52323;DHT22;38263;52.920;6.238;2024-03-02T11:16:51;16.00;99.90
52323;DHT22;38263;52.920;6.238;2024-03-02T11:19:18;15.60;99.90
52323;DHT22;38263;52.920;6.238;2024-03-02T11:21:44;15.30;99.90
52323;DHT22;38263;52.920;6.238;2024-03-02T11:26:53;14.00;99.90
52323;DHT22;38263;52.920;6.238;2024-03-02T11:32:04;13.30;99.90
52323;DHT22;38263;52.920;6.238;2024-03-02T11:34:34;13.40;99.90
52323;DHT22;38263;52.920;6.238;2024-03-02T11:37:04;13.10;99.90
52323;DHT22;38263;52.920;6.238;2024-03-02T11:39:30;13.00;99.90
52323;DHT22;38263;52.920;6.238;2024-03-02T11:41:57;13.10;99.90
52323;DHT22;38263;52.920;6.238;2024-03-02T11:44:29;13.30;99.90
52323;DHT22;38263;52.920;6.238;2024-03-02T11:46:59;13.00;99.90
52323;DHT22;38263;52.920;6.238;2024-03-02T11:49:37;12.80;99.90
52323;DHT22;38263;52.920;6.238;2024-03-02T11:52:05;12.70;99.90
52323;DHT22;38263;52.920;6.238;2024-03-02T11:54:33;14.30;99.90
52323;DHT22;38263;52.920;6.238;2024-03-02T11:57:02;14.90;99.90
52323;DHT22;38263;52.920;6.238;2024-03-02T11:59:32;14.60;99.90
52323;DHT22;38263;52.920;6.238;2024-03-02T12:01:58;15.60;99.90
52323;DHT22;38263;52.920;6.238;2024-03-02T12:04:24;15.50;99.90
52323;DHT22;38263;52.920;6.238;2024-03-02T12:07:01;14.80;99.90
52323;DHT22;38263;52.920;6.238;2024-03-02T12:09:30;14.30;99.90
52323;DHT22;38263;52.920;6.238;2024-03-02T12:12:06;13.80;99.90
52323;DHT22;38263;52.920;6.238;2024-03-02T12:14:33;13.50;99.90
52323;DHT22;38263;52.920;6.238;2024-03-02T12:16:59;13.20;99.90
52323;DHT22;38263;52.920;6.238;2024-03-02T12:19:26;13.20;99.90
52323;DHT22;38263;52.920;6.238;2024-03-02T12:21:53;12.90;99.90
52323;DHT22;38263;52.920;6.238;2024-03-02T12:24:20;12.90;99.90
52323;DHT22;38263;52.920;6.238;2024-03-02T12:26:46;12.90;99.90
52323;DHT22;38263;52.920;6.238;2024-03-02T12:29:13;12.90;99.90
52323;DHT22;38263;52.920;6.238;2024-03-02T12:31:41;12.80;99.90
52323;DHT22;38263;52.920;6.238;2024-03-02T12:34:07;12.80;99.90
52323;DHT22;38263;52.920;6.238;2024-03-02T12:36:39;12.60;99.90
52323;DHT22;38263;52.920;6.238;2024-03-02T12:39:10;12.90;99.90
52323;DHT22;38263;52.920;6.238;2024-03-02T12:41:38;12.90;99.90
52323;DHT22;38263;52.920;6.238;2024-03-02T12:44:05;12.80;99.90
52323;DHT22;38263;52.920;6.238;2024-03-02T12:46:32;12.90;99.90
52323;DHT22;38263;52.920;6.238;2024-03-02T12:49:21;12.80;99.90
52323;DHT22;38263;52.920;6.238;2024-03-02T12:54:17;12.80;99.90
52323;DHT22;38263;52.920;6.238;2024-03-02T12:56:43;12.90;99.90
52323;DHT22;38263;52.920;6.238;2024-03-02T12:59:18;13.10;99.90
52323;DHT22;38263;52.920;6.238;2024-03-02T13:01:55;13.10;99.90
52323;DHT22;38263;52.920;6.238;2024-03-02T13:04:27;13.10;99.90
52323;DHT22;38263;52.920;6.238;2024-03-02T13:06:54;13.10;99.90
52323;DHT22;38263;52.920;6.238;2024-03-02T13:09:23;13.20;99.90
52323;DHT22;38263;52.920;6.238;2024-03-02T13:14:15;13.30;99.90
52323;DHT22;38263;52.920;6.238;2024-03-02T13:16:45;13.10;99.90
52323;DHT22;38263;52.920;6.238;2024-03-02T13:19:12;13.30;99.90
52323;DHT22;38263;52.920;6.238;2024-03-02T13:21:38;13.20;99.90
52323;DHT22;38263;52.920;6.238;2024-03-02T13:24:05;13.20;99.90
52323;DHT22;38263;52.920;6.238;2024-03-02T13:26:31;13.20;99.90
52323;DHT22;38263;52.920;6.238;2024-03-02T13:28:56;13.20;99.90
52323;DHT22;38263;52.920;6.238;2024-03-02T13:31:22;13.10;99.90
52323;DHT22;38263;52.920;6.238;2024-03-02T13:33:48;12.90;99.90
52323;DHT22;38263;52.920;6.238;2024-03-02T13:36:13;13.70;99.90
52323;DHT22;38263;52.920;6.238;2024-03-02T13:38:39;13.10;99.90
52323;DHT22;38263;52.920;6.238;2024-03-02T13:41:05;13.30;99.90
52323;DHT22;38263;52.920;6.238;2024-03-02T13:43:30;13.30;99.90
52323;DHT22;38263;52.920;6.238;2024-03-02T13:46:03;13.20;99.90
52323;DHT22;38263;52.920;6.238;2024-03-02T13:50:57;13.00;99.90
52323;DHT22;38263;52.920;6.238;2024-03-02T13:53:22;13.00;99.90
52323;DHT22;38263;52.920;6.238;2024-03-02T13:55:48;13.10;99.90
52323;DHT22;38263;52.920;6.238;2024-03-02T13:58:14;13.00;99.90
52323;DHT22;38263;52.920;6.238;2024-03-02T14:00:40;13.00;99.90
52323;DHT22;38263;52.920;6.238;2024-03-02T14:03:06;13.00;99.90
52323;DHT22;38263;52.920;6.238;2024-03-02T14:05:32;13.00;99.90
52323;DHT22;38263;52.920;6.238;2024-03-02T14:10:26;13.10;99.90
52323;DHT22;38263;52.920;6.238;2024-03-02T14:12:52;13.00;99.90
52323;DHT22;38263;52.920;6.238;2024-03-02T14:17:44;13.00;99.90
52323;DHT22;38263;52.920;6.238;2024-03-02T14:25:04;13.20;99.90
52323;DHT22;38263;52.920;6.238;2024-03-02T14:27:30;13.10;99.90
52323;DHT22;38263;52.920;6.238;2024-03-02T14:29:55;13.00;99.90
52323;DHT22;38263;52.920;6.238;2024-03-02T14:32:21;13.30;99.90
52323;DHT22;38263;52.920;6.238;2024-03-02T14:34:46;13.40;99.90
52323;DHT22;38263;52.920;6.238;2024-03-02T14:37:14;13.40;99.90
52323;DHT22;38263;52.920;6.238;2024-03-02T14:39:40;13.40;99.90
52323;DHT22;38263;52.920;6.238;2024-03-02T14:42:06;13.30;99.90
52323;DHT22;38263;52.920;6.238;2024-03-02T14:44:32;13.30;99.90
52323;DHT22;38263;52.920;6.238;2024-03-02T14:46:59;13.40;99.90
52323;DHT22;38263;52.920;6.238;2024-03-02T14:49:25;13.40;99.90
52323;DHT22;38263;52.920;6.238;2024-03-02T14:51:50;13.40;99.90
52323;DHT22;38263;52.920;6.238;2024-03-02T14:54:16;13.50;99.90
52323;DHT22;38263;52.920;6.238;2024-03-02T14:56:42;13.50;99.90
52323;DHT22;38263;52.920;6.238;2024-03-02T14:59:08;13.40;99.90
52323;DHT22;38263;52.920;6.238;2024-03-02T15:01:33;13.50;99.90
52323;DHT22;38263;52.920;6.238;2024-03-02T15:03:59;13.60;99.90
52323;DHT22;38263;52.920;6.238;2024-03-02T15:06:25;13.50;99.90
52323;DHT22;38263;52.920;6.238;2024-03-02T15:08:50;13.60;99.90
52323;DHT22;38263;52.920;6.238;2024-03-02T15:11:16;13.50;99.90
52323;DHT22;38263;52.920;6.238;2024-03-02T15:13:42;13.50;99.90
52323;DHT22;38263;52.920;6.238;2024-03-02T15:16:07;13.60;99.90
52323;DHT22;38263;52.920;6.238;2024-03-02T15:18:33;13.60;99.90
52323;DHT22;38263;52.920;6.238;2024-03-02T15:21:00;14.30;99.90
52323;DHT22;38263;52.920;6.238;2024-03-02T15:23:25;13.60;99.90
52323;DHT22;38263;52.920;6.238;2024-03-02T15:25:51;13.70;99.90
52323;DHT22;38263;52.920;6.238;2024-03-02T15:28:17;13.70;99.90
52323;DHT22;38263;52.920;6.238;2024-03-02T15:30:43;13.80;99.90
52323;DHT22;38263;52.920;6.238;2024-03-02T15:33:09;14.70;99.90
52323;DHT22;38263;52.920;6.238;2024-03-02T15:35:35;14.00;99.90
52323;DHT22;38263;52.920;6.238;2024-03-02T15:38:00;13.70;99.90
52323;DHT22;38263;52.920;6.238;2024-03-02T15:40:26;14.90;99.90
52323;DHT22;38263;52.920;6.238;2024-03-02T15:42:52;13.90;99.90
52323;DHT22;38263;52.920;6.238;2024-03-02T15:45:17;14.00;99.90
52323;DHT22;38263;52.920;6.238;2024-03-02T15:47:43;13.90;99.90
52323;DHT22;38263;52.920;6.238;2024-03-02T15:50:09;15.00;99.90
52323;DHT22;38263;52.920;6.238;2024-03-02T15:52:35;13.90;99.90
52323;DHT22;38263;52.920;6.238;2024-03-02T15:55:00;13.90;99.90
52323;DHT22;38263;52.920;6.238;2024-03-02T15:57:27;14.00;99.90
52323;DHT22;38263;52.920;6.238;2024-03-02T15:59:53;14.70;99.90
52323;DHT22;38263;52.920;6.238;2024-03-02T16:02:19;13.80;99.90
52323;DHT22;38263;52.920;6.238;2024-03-02T16:04:44;13.70;99.90
52323;DHT22;38263;52.920;6.238;2024-03-02T16:07:10;13.60;99.90
52323;DHT22;38263;52.920;6.238;2024-03-02T16:09:35;13.70;99.90
52323;DHT22;38263;52.920;6.238;2024-03-02T16:12:01;13.90;99.90
52323;DHT22;38263;52.920;6.238;2024-03-02T16:14:26;13.70;99.90
52323;DHT22;38263;52.920;6.238;2024-03-02T16:16:52;13.60;99.90
52323;DHT22;38263;52.920;6.238;2024-03-02T16:19:18;13.60;99.90
52323;DHT22;38263;52.920;6.238;2024-03-02T16:21:43;13.50;99.90
52323;DHT22;38263;52.920;6.238;2024-03-02T16:24:09;13.50;99.90
52323;DHT22;38263;52.920;6.238;2024-03-02T16:26:35;13.70;99.90
52323;DHT22;38263;52.920;6.238;2024-03-02T16:29:00;13.30;99.90
52323;DHT22;38263;52.920;6.238;2024-03-02T16:31:26;13.40;99.90
52323;DHT22;38263;52.920;6.238;2024-03-02T16:33:51;13.20;99.90
52323;DHT22;38263;52.920;6.238;2024-03-02T16:36:17;12.90;99.90
52323;DHT22;38263;52.920;6.238;2024-03-02T16:38:43;13.30;99.90
52323;DHT22;38263;52.920;6.238;2024-03-02T16:41:09;13.10;99.90
52323;DHT22;38263;52.920;6.238;2024-03-02T16:43:35;12.90;99.90
52323;DHT22;38263;52.920;6.238;2024-03-02T16:46:01;12.70;99.90
52323;DHT22;38263;52.920;6.238;2024-03-02T16:48:26;12.70;99.90
52323;DHT22;38263;52.920;6.238;2024-03-02T16:50:52;12.70;99.90
52323;DHT22;38263;52.920;6.238;2024-03-02T16:53:18;12.80;99.90
52323;DHT22;38263;52.920;6.238;2024-03-02T16:55:44;12.50;99.90
52323;DHT22;38263;52.920;6.238;2024-03-02T16:58:10;12.40;99.90
52323;DHT22;38263;52.920;6.238;2024-03-02T17:00:35;12.40;99.90
52323;DHT22;38263;52.920;6.238;2024-03-02T17:03:03;12.10;99.90
52323;DHT22;38263;52.920;6.238;2024-03-02T17:05:29;12.20;99.90
52323;DHT22;38263;52.920;6.238;2024-03-02T17:10:23;11.90;99.90
52323;DHT22;38263;52.920;6.238;2024-03-02T17:12:49;11.60;99.90
52323;DHT22;38263;52.920;6.238;2024-03-02T17:15:14;11.70;99.90
52323;DHT22;38263;52.920;6.238;2024-03-02T17:17:40;11.60;99.90
52323;DHT22;38263;52.920;6.238;2024-03-02T17:20:06;11.60;99.90
52323;DHT22;38263;52.920;6.238;2024-03-02T17:22:34;11.50;99.90
52323;DHT22;38263;52.920;6.238;2024-03-02T17:25:00;11.40;99.90
52323;DHT22;38263;52.920;6.238;2024-03-02T17:27:25;11.40;99.90
52323;DHT22;38263;52.920;6.238;2024-03-02T17:29:56;11.50;99.90
52323;DHT22;38263;52.920;6.238;2024-03-02T17:32:21;11.40;99.90
52323;DHT22;38263;52.920;6.238;2024-03-02T17:44:31;11.10;99.90
52323;DHT22;38263;52.920;6.238;2024-03-02T17:46:57;10.80;99.90
52323;DHT22;38263;52.920;6.238;2024-03-02T17:49:22;10.90;99.90
52323;DHT22;38263;52.920;6.238;2024-03-02T17:54:14;10.80;99.90
52323;DHT22;38263;52.920;6.238;2024-03-02T17:56:39;10.80;99.90
52323;DHT22;38263;52.920;6.238;2024-03-02T17:59:05;10.60;99.90
52323;DHT22;38263;52.920;6.238;2024-03-02T18:11:18;11.10;99.90
52323;DHT22;38263;52.920;6.238;2024-03-02T18:13:44;10.80;99.90
52323;DHT22;38263;52.920;6.238;2024-03-02T18:16:14;10.90;99.90
52323;DHT22;38263;52.920;6.238;2024-03-02T18:23:32;10.80;99.90
52323;DHT22;38263;52.920;6.238;2024-03-02T18:35:42;11.00;99.90
52323;DHT22;38263;52.920;6.238;2024-03-02T19:00:05;11.10;99.90
52323;DHT22;38263;52.920;6.238;2024-03-02T19:05:00;11.00;99.90
52323;DHT22;38263;52.920;6.238;2024-03-02T19:19:37;11.20;99.90
52323;DHT22;38263;52.920;6.238;2024-03-02T19:29:22;10.90;99.90
52323;DHT22;38263;52.920;6.238;2024-03-02T19:41:43;11.20;99.90
52323;DHT22;38263;52.920;6.238;2024-03-02T20:23:09;11.20;99.90
52323;DHT22;38263;52.920;6.238;2024-03-02T20:30:29;11.10;99.90
52323;DHT22;38263;52.920;6.238;2024-03-02T20:42:43;10.90;99.90
52323;DHT22;38263;52.920;6.238;2024-03-02T21:07:04;11.00;99.90
52323;DHT22;38263;52.920;6.238;2024-03-02T21:09:29;11.30;99.90
52323;DHT22;38263;52.920;6.238;2024-03-02T21:14:21;11.30;99.90
52323;DHT22;38263;52.920;6.238;2024-03-02T21:16:49;11.30;99.90
52323;DHT22;38263;52.920;6.238;2024-03-02T21:19:15;11.30;99.90
52323;DHT22;38263;52.920;6.238;2024-03-02T21:26:38;11.30;99.90
52323;DHT22;38263;52.920;6.238;2024-03-02T21:31:30;11.40;99.90
52323;DHT22;38263;52.920;6.238;2024-03-02T21:46:10;11.40;99.90
52323;DHT22;38263;52.920;6.238;2024-03-02T21:55:55;11.40;99.90
52323;DHT22;38263;52.920;6.238;2024-03-02T21:58:20;11.50;99.90
52323;DHT22;38263;52.920;6.238;2024-03-02T22:08:06;11.40;99.90
52323;DHT22;38263;52.920;6.238;2024-03-02T22:17:51;11.60;99.90
52323;DHT22;38263;52.920;6.238;2024-03-02T22:27:36;11.40;99.90
52323;DHT22;38263;52.920;6.238;2024-03-02T22:30:06;11.30;99.90
52323;DHT22;38263;52.920;6.238;2024-03-02T22:32:32;11.10;99.90
52323;DHT22;38263;52.920;6.238;2024-03-02T22:44:41;10.90;99.90
52323;DHT22;38263;52.920;6.238;2024-03-02T22:47:07;11.00;99.90
52323;DHT22;38263;52.920;6.238;2024-03-02T22:49:33;11.00;99.90
52323;DHT22;38263;52.920;6.238;2024-03-02T22:59:16;10.70;99.90
52323;DHT22;38263;52.920;6.238;2024-03-02T23:01:42;10.60;99.90
52323;DHT22;38263;52.920;6.238;2024-03-02T23:09:02;10.40;99.90
52323;DHT22;38263;52.920;6.238;2024-03-02T23:18:47;10.50;99.90
52323;DHT22;38263;52.920;6.238;2024-03-02T23:30:57;10.30;99.90
52323;DHT22;38263;52.920;6.238;2024-03-02T23:45:53;10.10;99.90
52323;DHT22;38263;52.920;6.238;2024-03-02T23:48:19;10.20;99.90
